Bagni di Tivol, Italy

7:09 PM CET on December 08, 2016 (GMT +0100)
Colosseo | | Change Station

Elev 164 ft 41.90 °N, 12.48 °E | Updated 47 seconds ago

Clear
Clear
47.8 °F
Feels Like 48 °F
N
0.0
Wind Variable Wind from WNW
Gusts 0.0 mph

Today
High -- | Low -- °F
--% Chance of Precip.
Yesterday
High -- | Low -- °F
Precip. -- in
Pressure 30.54 in
Visibility -9999.0 miles
Clouds
Windchill 48 °F
Dew Point 40 °F
Humidity 75%
Rainfall 0.00 in
Snow Depth Not available.
7:25 AM 4:38 PM
Waxing Gibbous, 65% visible
METAR LIRA 081750Z 10005KT CAVOK 08/02 Q1034
Pressure 30.54 in
Visibility -9999.0 miles
Clouds
Windchill 48 °F
Dew Point 40 °F
Humidity 75%
Rainfall 0.00 in
Snow Depth Not available.
7:25 AM 4:38 PM
Waxing Gibbous, 65% visible
METAR LIRA 081750Z 10005KT CAVOK 08/02 Q1034

10-Day Weather Forecast

×

Almanac

Astronomy

Dec. 08, 2016 Rise Set
Actual Time
Civil Twilight
Nautical Twilight
Astronomical Twilight
Moon
Length of Visible Light
Length of Day
Tomorrow will be .
, % of the Moon is Illuminated

Today's Extremes

Country Highs Country Lows

Community

WunderPhotos

Upload Photos

1,956,277 photos uploaded!

WunderBlog® & News

Nearby

Air Quality

  Air Quality AQ Index Pollutant
Not available.

Snow Depth

Station Depth Elevation

Earthquake Activity

City Distance Mag. Time & Date
Minimum magnitude displayed is 2.5.

Coastal Water Temperatures

Place Temperature

Stations

Nearby Weather Stations

Station Location Temp. Windchill Dew Point Humidity Wind Precip. Elev Updated Type